Time;durP1;ratioP1;P1;durP2;ratioP2;P2;SDS_P1;SDS_P2;PMS_P1;PMS_P2;Temp;Humidity;BMP_temperature;BMP_pressure;BME280_temperature;BME280_humidity;BME280_pressure;Samples;Min_cycle;Max_cycle;Signal;HPM_P1;HPM_P2
2021/06/19 00:01:26;;;;;;;12.23;7.82;;;;;;;18.89;72.61;95406.00;5094599;28;20039;-75
2021/06/19 00:03:51;;;;;;;8.55;7.18;;;;;;;18.92;72.18;95413.34;5101337;28;20092;-75
2021/06/19 00:06:17;;;;;;;13.30;7.35;;;;;;;18.95;71.93;95407.34;5082109;28;20044;-76
2021/06/19 00:08:42;;;;;;;9.32;7.63;;;;;;;18.90;72.19;95410.22;5067919;28;20059;-76
2021/06/19 00:11:08;;;;;;;10.57;7.35;;;;;;;18.77;73.04;95418.09;5090330;28;20044;-76
2021/06/19 00:13:33;;;;;;;10.75;7.85;;;;;;;18.74;73.56;95412.66;5101721;28;20043;-76
2021/06/19 00:15:59;;;;;;;10.85;8.30;;;;;;;18.68;73.57;95415.50;5102625;28;20093;-75
2021/06/19 00:18:24;;;;;;;10.50;7.63;;;;;;;18.69;73.32;95416.28;5071305;28;20455;-76
2021/06/19 00:20:51;;;;;;;10.23;8.18;;;;;;;18.64;73.64;95424.47;5097097;28;20090;-76
2021/06/19 00:23:16;;;;;;;11.85;7.40;;;;;;;18.65;73.23;95420.72;5090423;28;20036;-76
2021/06/19 00:25:42;;;;;;;9.93;7.93;;;;;;;18.61;73.78;95425.88;5090129;28;20101;-76
2021/06/19 00:28:08;;;;;;;12.80;8.18;;;;;;;18.63;73.68;95433.56;5103378;28;20126;-75
2021/06/19 00:30:33;;;;;;;10.50;8.20;;;;;;;18.58;73.91;95439.09;5089225;28;20066;-75
2021/06/19 00:32:59;;;;;;;10.13;8.07;;;;;;;18.59;73.94;95437.97;5089168;28;20036;-76
2021/06/19 00:35:24;;;;;;;11.85;7.65;;;;;;;18.61;73.79;95441.09;5095220;28;20088;-76
2021/06/19 00:37:51;;;;;;;10.82;7.85;;;;;;;18.60;73.64;95442.22;5100628;28;20066;-75
2021/06/19 00:40:18;;;;;;;12.35;7.80;;;;;;;18.60;73.81;95450.19;5083023;28;20060;-76
2021/06/19 00:42:59;;;;;;;9.93;7.50;;;;;;;18.52;73.88;95452.59;5093089;28;20069;-75
2021/06/19 00:45:27;;;;;;;8.93;7.75;;;;;;;18.47;74.51;95460.75;5101573;28;20039;-76
2021/06/19 00:47:53;;;;;;;8.90;7.40;;;;;;;18.51;73.73;95451.03;5087437;28;20494;-76
2021/06/19 00:50:21;;;;;;;9.13;7.82;;;;;;;18.51;73.65;95448.34;5095937;28;20059;-76
2021/06/19 00:52:47;;;;;;;9.18;7.90;;;;;;;18.49;74.10;95450.56;5105714;28;20040;-76
2021/06/19 00:55:13;;;;;;;11.48;7.60;;;;;;;18.43;74.77;95454.53;5094924;28;20044;-76
2021/06/19 00:57:39;;;;;;;13.23;8.00;;;;;;;18.46;74.57;95453.09;5088230;28;20044;-76
2021/06/19 01:00:07;;;;;;;9.02;7.10;;;;;;;18.48;74.39;95457.00;5096546;28;20062;-76
2021/06/19 01:02:33;;;;;;;9.15;7.43;;;;;;;18.44;74.53;95458.72;5089817;28;20119;-76
2021/06/19 01:04:59;;;;;;;10.52;8.15;;;;;;;18.43;75.00;95465.19;5088736;28;20515;-76
2021/06/19 01:07:25;;;;;;;10.05;8.25;;;;;;;18.45;75.28;95470.19;5083563;28;20036;-76
2021/06/19 01:09:50;;;;;;;10.48;8.27;;;;;;;18.42;75.31;95471.59;5091071;28;20504;-76
2021/06/19 01:12:22;;;;;;;11.25;8.63;;;;;;;18.47;75.53;95479.41;5089391;28;20086;-76
2021/06/19 01:14:49;;;;;;;10.77;8.43;;;;;;;18.42;75.73;95484.94;5093628;28;20032;-76
2021/06/19 01:17:16;;;;;;;11.73;8.07;;;;;;;18.43;75.17;95483.84;5089861;28;20097;-76
2021/06/19 01:19:41;;;;;;;10.27;8.18;;;;;;;18.44;75.24;95484.59;5090912;28;20032;-76
2021/06/19 01:22:07;;;;;;;11.52;8.23;;;;;;;18.43;75.57;95478.50;5109847;28;20046;-75
2021/06/19 01:24:33;;;;;;;10.73;8.40;;;;;;;18.43;75.65;95483.84;5094810;28;20501;-76
2021/06/19 01:26:58;;;;;;;9.75;8.18;;;;;;;18.44;75.48;95474.72;5088074;28;20038;-76
2021/06/19 01:29:24;;;;;;;9.52;7.95;;;;;;;18.48;75.43;95475.66;5102276;28;20036;-76
2021/06/19 01:31:49;;;;;;;9.65;8.43;;;;;;;18.49;75.61;95474.56;5094589;28;20044;-76
2021/06/19 01:34:15;;;;;;;11.77;8.45;;;;;;;18.45;75.78;95470.97;5100796;28;20115;-76
2021/06/19 01:36:41;;;;;;;9.93;8.43;;;;;;;18.43;76.29;95473.19;5080755;28;20375;-75
2021/06/19 01:39:06;;;;;;;10.65;8.10;;;;;;;18.40;76.60;95473.78;5102881;28;20032;-76
2021/06/19 01:41:32;;;;;;;12.90;8.05;;;;;;;18.44;76.96;95485.38;5108573;28;20055;-76
2021/06/19 01:44:09;;;;;;;12.63;9.35;;;;;;;18.48;76.32;95486.31;5104199;28;20560;-75
2021/06/19 01:46:38;;;;;;;14.15;8.52;;;;;;;18.52;75.64;95481.13;5092784;28;20040;-75
2021/06/19 01:49:04;;;;;;;11.52;8.80;;;;;;;18.52;75.97;95476.56;5096403;28;20040;-75
2021/06/19 01:51:29;;;;;;;11.00;8.85;;;;;;;18.57;75.96;95482.81;5091297;28;20044;-76
2021/06/19 01:53:55;;;;;;;10.98;8.00;;;;;;;18.51;76.15;95480.31;5092559;28;20060;-76
2021/06/19 01:56:22;;;;;;;12.20;8.95;;;;;;;18.48;76.43;95486.31;5098078;28;20035;-76
2021/06/19 01:58:48;;;;;;;11.70;8.98;;;;;;;18.44;76.90;95480.06;5094502;28;20515;-76
2021/06/19 02:01:15;;;;;;;9.73;8.57;;;;;;;18.44;76.79;95488.03;5107178;28;20198;-76
2021/06/19 02:03:42;;;;;;;11.68;8.80;;;;;;;18.42;76.53;95490.25;5094365;28;20043;-76
2021/06/19 02:06:08;;;;;;;10.10;9.10;;;;;;;18.43;76.31;95493.69;5086382;28;20040;-76
2021/06/19 02:08:35;;;;;;;11.95;8.73;;;;;;;18.40;76.61;95505.75;5091837;28;20045;-75
2021/06/19 02:11:03;;;;;;;10.98;8.80;;;;;;;18.32;77.11;95506.59;5096138;28;20043;-76
2021/06/19 02:13:29;;;;;;;11.43;8.73;;;;;;;18.21;77.98;95513.38;5095199;28;20036;-76
2021/06/19 02:15:55;;;;;;;11.23;9.15;;;;;;;18.14;77.65;95500.53;5105206;28;20039;-75
2021/06/19 02:18:21;;;;;;;11.60;9.30;;;;;;;18.08;78.13;95499.91;5075413;28;20044;-76
2021/06/19 02:20:51;;;;;;;9.52;8.52;;;;;;;18.09;77.80;95493.50;5096895;28;20040;-76
2021/06/19 02:23:18;;;;;;;9.70;8.68;;;;;;;18.08;77.90;95497.25;5095670;28;20043;-76
2021/06/19 02:25:46;;;;;;;10.15;8.93;;;;;;;18.04;78.20;95498.97;5093553;28;20052;-76
2021/06/19 02:28:11;;;;;;;12.57;9.80;;;;;;;17.96;79.03;95505.13;5101174;28;20469;-76
2021/06/19 02:30:43;;;;;;;11.25;8.60;;;;;;;17.92;78.79;95496.22;5099185;28;20119;-76
2021/06/19 02:33:09;;;;;;;10.88;8.75;;;;;;;17.94;78.68;95504.66;5102349;28;20113;-76
2021/06/19 02:35:38;;;;;;;13.13;8.57;;;;;;;17.97;78.54;95512.00;5087329;28;20036;-75
2021/06/19 02:38:04;;;;;;;11.55;9.13;;;;;;;17.95;78.49;95507.00;5095749;28;20040;-76
2021/06/19 02:40:31;;;;;;;11.15;9.07;;;;;;;17.97;78.58;95510.13;5104785;28;20043;-76
2021/06/19 02:42:57;;;;;;;13.00;9.38;;;;;;;17.90;78.49;95509.84;5105918;28;20032;-76
2021/06/19 02:45:23;;;;;;;13.88;9.68;;;;;;;17.86;78.48;95508.88;5096863;28;21381;-76
2021/06/19 02:47:51;;;;;;;11.07;9.32;;;;;;;17.88;78.46;95506.66;5096623;28;20039;-76
2021/06/19 02:50:19;;;;;;;12.25;9.57;;;;;;;18.01;78.69;95512.94;5092483;28;20031;-76
2021/06/19 02:52:45;;;;;;;11.68;9.98;;;;;;;18.10;78.53;95503.06;5097429;28;20051;-76
2021/06/19 02:55:13;;;;;;;13.27;10.43;;;;;;;18.13;79.12;95502.41;5109646;28;20101;-76
2021/06/19 02:57:40;;;;;;;13.80;10.23;;;;;;;18.13;78.62;95498.97;5091242;28;20039;-76
2021/06/19 03:00:08;;;;;;;14.95;9.95;;;;;;;18.22;78.73;95510.38;5094493;28;20409;-76
2021/06/19 03:02:33;;;;;;;11.50;9.98;;;;;;;18.30;78.63;95503.47;5093731;28;20043;-76
2021/06/19 03:04:59;;;;;;;13.48;10.10;;;;;;;18.39;78.09;95509.56;5094962;28;20040;-76
2021/06/19 03:07:25;;;;;;;13.30;10.32;;;;;;;18.46;78.11;95509.84;5089529;28;20421;-76
2021/06/19 03:09:51;;;;;;;15.90;10.32;;;;;;;18.47;77.99;95503.38;5093700;28;20035;-75
2021/06/19 03:12:16;;;;;;;11.63;10.32;;;;;;;18.41;77.96;95502.00;5094906;28;20117;-76
2021/06/19 03:14:41;;;;;;;12.90;10.20;;;;;;;18.44;77.81;95506.69;5092853;28;20122;-76
2021/06/19 03:17:07;;;;;;;16.00;10.35;;;;;;;18.37;78.55;95511.75;5094019;28;20040;-76
2021/06/19 03:19:33;;;;;;;14.35;10.30;;;;;;;18.40;78.07;95511.09;5071373;28;20041;-76
2021/06/19 03:21:59;;;;;;;14.45;10.35;;;;;;;18.27;78.45;95501.44;5090011;28;20039;-76
2021/06/19 03:24:26;;;;;;;14.32;10.18;;;;;;;18.16;78.91;95501.78;5111892;28;20043;-76
2021/06/19 03:26:52;;;;;;;12.52;10.00;;;;;;;18.18;79.30;95509.44;5090233;28;20060;-76
2021/06/19 03:29:17;;;;;;;13.55;10.20;;;;;;;18.15;78.94;95505.53;5086798;28;20085;-76
2021/06/19 03:31:43;;;;;;;12.23;10.25;;;;;;;18.21;78.66;95511.47;5096083;28;20036;-76
2021/06/19 03:34:08;;;;;;;12.68;9.98;;;;;;;18.10;79.27;95513.72;5091773;28;20105;-76
2021/06/19 03:36:34;;;;;;;11.80;9.68;;;;;;;18.08;79.41;95521.22;5093391;28;20036;-76
2021/06/19 03:38:59;;;;;;;13.25;10.65;;;;;;;18.04;79.45;95520.28;5093993;28;20232;-76
2021/06/19 03:41:25;;;;;;;13.77;10.18;;;;;;;18.06;79.77;95530.63;5096473;28;20423;-76
2021/06/19 03:43:51;;;;;;;13.07;10.50;;;;;;;18.05;79.70;95532.50;5102595;28;20115;-75
2021/06/19 03:46:17;;;;;;;12.48;11.00;;;;;;;18.02;80.21;95533.16;5098239;28;20040;-76
2021/06/19 03:48:42;;;;;;;12.20;10.65;;;;;;;17.99;80.40;95531.88;5086696;28;20493;-76
2021/06/19 03:51:08;;;;;;;14.50;11.07;;;;;;;17.95;80.28;95530.19;5095356;28;20085;-76
2021/06/19 03:53:33;;;;;;;13.75;10.85;;;;;;;17.98;80.64;95532.22;5102326;28;20493;-76
2021/06/19 03:55:59;;;;;;;11.57;10.38;;;;;;;17.98;80.31;95534.88;5099649;28;20032;-76
2021/06/19 03:58:24;;;;;;;12.32;10.32;;;;;;;18.04;80.34;95536.25;5084082;28;20363;-76
2021/06/19 04:00:50;;;;;;;12.13;10.52;;;;;;;18.21;79.89;95534.69;5100641;28;20404;-76
2021/06/19 04:03:15;;;;;;;12.52;10.50;;;;;;;18.36;79.58;95531.50;5090824;28;20040;-76
2021/06/19 04:05:41;;;;;;;12.60;10.60;;;;;;;18.48;78.99;95539.59;5091754;28;20515;-76
2021/06/19 04:08:06;;;;;;;16.67;11.25;;;;;;;18.58;78.67;95548.34;5090421;28;20036;-76
2021/06/19 04:10:32;;;;;;;11.65;10.38;;;;;;;18.66;78.50;95550.19;5087266;28;20050;-76
2021/06/19 04:12:57;;;;;;;12.90;10.05;;;;;;;18.73;78.30;95547.81;5096093;28;20115;-76
2021/06/19 04:15:23;;;;;;;11.05;9.90;;;;;;;18.80;78.13;95550.75;5108956;28;20137;-75
2021/06/19 04:17:49;;;;;;;11.48;10.25;;;;;;;18.91;77.86;95555.78;5091287;28;20036;-77
2021/06/19 04:20:15;;;;;;;14.32;10.88;;;;;;;19.01;77.38;95555.41;5107857;28;20036;-76
2021/06/19 04:22:42;;;;;;;10.90;9.27;;;;;;;19.09;77.37;95559.88;5106541;28;20057;-76
2021/06/19 04:25:09;;;;;;;11.27;9.82;;;;;;;19.19;77.16;95567.53;5090856;28;20052;-76
2021/06/19 04:27:43;;;;;;;11.70;10.45;;;;;;;19.25;77.07;95560.13;5102269;28;20036;-76
2021/06/19 04:30:11;;;;;;;14.43;9.82;;;;;;;19.40;76.54;95577.44;5110851;28;20096;-76
2021/06/19 04:32:38;;;;;;;12.63;10.18;;;;;;;19.46;76.65;95570.81;5104633;28;20043;-76
2021/06/19 04:35:05;;;;;;;14.95;10.23;;;;;;;19.60;76.23;95580.47;5088414;28;20572;-76
2021/06/19 04:37:31;;;;;;;11.32;9.75;;;;;;;19.72;76.04;95577.84;5089810;28;20459;-76
2021/06/19 04:42:26;;;;;;;14.48;9.52;;;;;;;20.05;74.34;95601.16;5090139;28;20076;-76
2021/06/19 04:47:25;;;;;;;12.02;8.82;;;;;;;20.41;73.28;95594.38;5088361;28;20046;-76
2021/06/19 04:49:50;;;;;;;10.00;8.88;;;;;;;20.50;72.38;95595.09;5080184;28;20032;-76
2021/06/19 04:52:16;;;;;;;13.02;8.90;;;;;;;20.60;72.04;95594.66;5094611;28;20041;-76
2021/06/19 04:54:42;;;;;;;13.93;9.05;;;;;;;20.64;72.56;95599.34;5093758;28;20097;-76
2021/06/19 04:57:08;;;;;;;13.07;8.75;;;;;;;20.66;72.21;95602.44;5104250;28;20480;-76
2021/06/19 04:59:36;;;;;;;13.38;8.98;;;;;;;20.70;71.86;95604.19;5112489;28;20050;-76
2021/06/19 05:02:02;;;;;;;12.35;8.48;;;;;;;20.79;71.63;95601.41;5099805;28;20349;-76
2021/06/19 05:04:28;;;;;;;13.95;8.48;;;;;;;20.86;71.73;95606.19;5093001;28;20055;-76
2021/06/19 05:06:54;;;;;;;15.38;8.80;;;;;;;20.92;71.44;95610.22;5095030;28;20461;-76
2021/06/19 05:09:19;;;;;;;9.65;8.63;;;;;;;20.98;71.17;95614.22;5090719;28;20111;-76
2021/06/19 05:11:45;;;;;;;13.07;9.10;;;;;;;21.08;70.54;95610.34;5096704;28;20441;-76
2021/06/19 05:14:11;;;;;;;10.23;8.48;;;;;;;21.23;69.79;95615.03;5094769;28;20032;-76
2021/06/19 05:16:36;;;;;;;11.25;8.35;;;;;;;21.30;70.50;95614.44;5088558;28;20044;-76
2021/06/19 05:19:02;;;;;;;13.80;8.93;;;;;;;21.29;70.33;95608.31;5105541;28;20043;-77
2021/06/19 05:21:28;;;;;;;10.20;8.48;;;;;;;21.46;69.22;95611.84;5093470;28;20066;-76
2021/06/19 05:23:53;;;;;;;12.68;8.45;;;;;;;21.45;69.65;95611.09;5094639;28;20044;-75
2021/06/19 05:26:19;;;;;;;11.93;8.25;;;;;;;21.65;68.79;95619.34;5089817;28;20409;-76
2021/06/19 05:28:44;;;;;;;10.70;7.50;;;;;;;21.69;69.18;95614.09;5096213;28;20036;-76
2021/06/19 05:31:10;;;;;;;12.90;8.15;;;;;;;21.74;68.24;95611.19;5093643;28;20040;-76
2021/06/19 05:33:35;;;;;;;11.18;7.80;;;;;;;21.85;67.74;95623.00;5083606;28;20086;-76
2021/06/19 05:36:01;;;;;;;12.00;7.82;;;;;;;21.88;67.95;95616.94;5073221;28;20045;-76
2021/06/19 05:38:26;;;;;;;13.05;7.63;;;;;;;21.84;67.34;95618.75;5092099;28;20051;-76
2021/06/19 05:40:52;;;;;;;16.60;8.10;;;;;;;21.83;67.69;95617.19;5093346;28;20497;-76
2021/06/19 05:43:17;;;;;;;16.45;8.27;;;;;;;21.88;66.94;95622.31;5100645;28;20089;-76
2021/06/19 05:45:43;;;;;;;16.02;8.35;;;;;;;21.88;67.16;95627.66;5113790;28;20051;-76
2021/06/19 05:48:08;;;;;;;16.92;8.60;;;;;;;21.87;66.41;95636.81;5093223;28;20104;-76
2021/06/19 05:50:34;;;;;;;13.52;8.15;;;;;;;21.90;66.64;95646.84;5102574;28;20118;-76
2021/06/19 05:52:59;;;;;;;15.20;8.43;;;;;;;21.89;66.85;95634.56;5110017;28;20036;-76
2021/06/19 05:55:25;;;;;;;14.40;8.43;;;;;;;21.91;66.94;95648.41;5096282;28;20111;-76
2021/06/19 05:57:50;;;;;;;12.73;7.78;;;;;;;21.90;66.45;95652.22;5082154;28;20046;-76
2021/06/19 06:00:17;;;;;;;12.35;8.05;;;;;;;21.85;67.09;95643.63;5084158;28;20123;-76
2021/06/19 06:02:44;;;;;;;15.82;8.20;;;;;;;21.82;66.74;95649.66;5090075;28;20055;-76
2021/06/19 06:05:11;;;;;;;10.50;8.10;;;;;;;21.85;67.88;95655.13;5093187;28;20040;-76
2021/06/19 06:07:36;;;;;;;13.45;7.93;;;;;;;21.85;67.73;95660.50;5099288;28;20557;-76
2021/06/19 06:10:03;;;;;;;15.65;8.25;;;;;;;21.95;67.44;95662.69;5097133;28;20043;-76
2021/06/19 06:12:29;;;;;;;12.80;8.07;;;;;;;22.04;67.58;95659.09;5093734;28;20047;-76
2021/06/19 06:14:55;;;;;;;11.95;8.05;;;;;;;22.22;66.45;95651.56;5093159;28;20115;-76
2021/06/19 06:17:20;;;;;;;15.52;7.57;;;;;;;22.26;66.67;95652.44;5091881;28;20111;-76
2021/06/19 06:19:46;;;;;;;11.27;7.60;;;;;;;22.33;66.39;95647.31;5083153;28;20078;-76
2021/06/19 06:22:12;;;;;;;15.10;8.00;;;;;;;22.46;66.22;95650.72;5106211;28;20292;-76
2021/06/19 06:24:37;;;;;;;15.65;7.65;;;;;;;22.47;66.29;95654.97;5092869;28;20486;-76
2021/06/19 06:27:03;;;;;;;14.00;7.47;;;;;;;22.73;64.65;95662.53;5091501;28;20498;-76
2021/06/19 06:29:29;;;;;;;13.35;7.57;;;;;;;22.67;64.21;95662.00;5091738;28;20040;-76
2021/06/19 06:31:54;;;;;;;10.63;6.78;;;;;;;22.81;62.48;95663.47;5093007;28;20501;-76
2021/06/19 06:34:23;;;;;;;12.23;6.85;;;;;;;22.97;61.38;95663.50;5099989;28;20036;-76
2021/06/19 06:36:49;;;;;;;11.70;6.25;;;;;;;22.88;61.10;95663.66;5077727;28;20063;-75
2021/06/19 06:39:15;;;;;;;11.85;6.95;;;;;;;22.89;62.11;95667.91;5091427;28;20063;-76
2021/06/19 06:41:40;;;;;;;11.57;6.47;;;;;;;22.92;62.14;95655.72;5091643;28;20036;-76
2021/06/19 06:44:07;;;;;;;11.55;6.90;;;;;;;22.89;61.13;95667.91;5091130;28;20093;-76
2021/06/19 06:46:32;;;;;;;12.30;6.85;;;;;;;22.96;60.82;95668.09;5095305;28;20088;-76
2021/06/19 06:48:58;;;;;;;12.57;6.63;;;;;;;23.07;60.52;95672.94;5113662;27;20035;-76
2021/06/19 06:51:24;;;;;;;12.68;6.53;;;;;;;23.21;59.81;95661.81;5102077;28;20040;-76
2021/06/19 06:53:49;;;;;;;15.60;7.13;;;;;;;23.41;59.38;95665.34;5095475;28;20071;-76
2021/06/19 06:56:15;;;;;;;13.85;6.97;;;;;;;23.48;58.83;95670.88;5088463;28;20041;-76
2021/06/19 06:58:40;;;;;;;13.45;7.10;;;;;;;23.65;58.68;95669.72;5102973;28;20397;-76
2021/06/19 07:01:07;;;;;;;11.75;6.47;;;;;;;23.72;59.07;95664.50;5088664;28;20493;-76
2021/06/19 07:03:33;;;;;;;12.40;7.20;;;;;;;23.87;58.01;95655.63;5100688;28;20069;-76
2021/06/19 07:05:59;;;;;;;12.07;6.60;;;;;;;24.03;57.59;95647.53;5095331;28;20068;-76
2021/06/19 07:08:24;;;;;;;9.57;6.50;;;;;;;24.07;57.36;95663.72;5092060;28;20084;-76
2021/06/19 07:10:50;;;;;;;12.07;6.32;;;;;;;24.15;55.76;95664.66;5096376;28;20508;-76
2021/06/19 07:13:15;;;;;;;14.32;6.10;;;;;;;24.14;55.99;95669.25;5094455;28;20043;-76
2021/06/19 07:15:43;;;;;;;17.13;6.30;;;;;;;24.28;56.26;95667.97;5105994;28;20043;-76
2021/06/19 07:18:09;;;;;;;12.02;6.53;;;;;;;24.41;56.28;95665.91;5095623;28;20090;-76
2021/06/19 07:20:34;;;;;;;13.88;6.50;;;;;;;24.52;55.76;95664.22;5093092;28;20040;-75
2021/06/19 07:23:00;;;;;;;11.80;6.78;;;;;;;24.49;55.93;95667.63;5090433;27;20113;-76
2021/06/19 07:25:26;;;;;;;12.23;6.40;;;;;;;24.53;55.88;95663.09;5091587;28;20055;-75
2021/06/19 07:27:54;;;;;;;13.43;6.55;;;;;;;24.66;55.54;95661.81;5086387;28;20036;-76
2021/06/19 07:30:22;;;;;;;10.73;6.47;;;;;;;24.60;56.59;95668.63;5089830;28;20055;-75
2021/06/19 07:32:47;;;;;;;13.85;6.65;;;;;;;24.56;57.13;95665.06;5091367;28;20044;-75
2021/06/19 07:35:13;;;;;;;14.18;6.60;;;;;;;24.75;55.83;95663.50;5088624;28;20036;-78
2021/06/19 07:37:39;;;;;;;11.95;6.50;;;;;;;24.65;56.04;95665.66;5094876;28;20122;-75
2021/06/19 07:40:06;;;;;;;16.98;7.00;;;;;;;24.68;56.00;95670.31;5093334;28;20032;-76
2021/06/19 07:42:32;;;;;;;14.07;7.05;;;;;;;24.61;56.35;95662.13;5090246;28;20036;-72
2021/06/19 07:44:57;;;;;;;13.57;6.80;;;;;;;24.63;56.60;95659.84;5108622;28;20058;-73
2021/06/19 07:47:23;;;;;;;13.00;6.78;;;;;;;24.77;56.76;95661.22;5091398;28;20055;-72
2021/06/19 07:49:49;;;;;;;11.13;6.40;;;;;;;24.75;56.67;95668.88;5074494;28;20036;-74
2021/06/19 07:52:14;;;;;;;9.02;6.50;;;;;;;24.83;56.48;95670.59;5091060;28;20036;-76
2021/06/19 07:54:40;;;;;;;14.30;7.15;;;;;;;24.80;56.55;95665.91;5092456;28;20036;-74
2021/06/19 07:57:07;;;;;;;13.90;7.22;;;;;;;24.64;58.00;95666.00;5091457;28;20036;-77
2021/06/19 07:59:33;;;;;;;10.50;6.85;;;;;;;24.71;57.40;95664.22;5111563;28;20044;-75
2021/06/19 08:02:00;;;;;;;11.85;7.13;;;;;;;24.70;57.44;95667.28;5104604;28;20055;-74
2021/06/19 08:04:25;;;;;;;16.92;6.97;;;;;;;24.62;57.85;95666.34;5089754;28;20040;-75
2021/06/19 08:06:51;;;;;;;9.80;7.20;;;;;;;24.61;58.23;95662.13;5082064;28;20071;-73
2021/06/19 08:09:16;;;;;;;12.18;7.10;;;;;;;24.58;58.06;95670.09;5083619;28;20039;-73
2021/06/19 08:11:42;;;;;;;14.07;7.30;;;;;;;24.50;58.17;95658.44;5104285;28;20441;-75
2021/06/19 08:14:07;;;;;;;10.52;7.05;;;;;;;24.53;58.91;95657.72;5091549;28;20069;-73
2021/06/19 08:16:33;;;;;;;15.48;7.18;;;;;;;24.50;59.22;95647.66;5089718;28;20036;-76
2021/06/19 08:18:59;;;;;;;16.52;7.60;;;;;;;24.46;58.61;95641.44;5090862;28;20039;-77
2021/06/19 08:21:25;;;;;;;11.13;7.05;;;;;;;24.55;57.69;95644.66;5091570;28;20068;-77
2021/06/19 08:23:50;;;;;;;13.52;7.47;;;;;;;24.52;59.13;95645.38;5096740;28;20036;-79
2021/06/19 08:26:16;;;;;;;13.52;7.68;;;;;;;24.53;58.54;95634.28;5090435;28;20046;-76
2021/06/19 08:28:41;;;;;;;15.18;7.63;;;;;;;24.50;58.67;95631.53;5076488;28;20504;-76
2021/06/19 08:31:07;;;;;;;12.65;7.55;;;;;;;24.66;58.19;95626.06;5070541;28;20052;-75
2021/06/19 08:33:32;;;;;;;12.95;7.25;;;;;;;24.77;59.20;95623.56;5089617;28;20040;-75
2021/06/19 08:35:58;;;;;;;11.25;7.43;;;;;;;24.99;57.73;95619.31;5085724;28;20040;-73
2021/06/19 08:38:24;;;;;;;13.63;7.80;;;;;;;25.03;57.41;95615.53;5090451;28;20043;-75
2021/06/19 08:40:50;;;;;;;15.55;7.18;;;;;;;25.07;58.06;95605.59;5106368;28;20044;-75
2021/06/19 08:43:16;;;;;;;13.82;7.65;;;;;;;25.19;58.26;95606.56;5105701;28;20036;-78
2021/06/19 08:45:43;;;;;;;19.00;7.28;;;;;;;25.24;58.02;95598.16;5102258;28;20089;-79
2021/06/19 08:48:08;;;;;;;16.23;7.70;;;;;;;25.29;58.03;95600.53;5092503;28;20032;-73
2021/06/19 08:50:37;;;;;;;11.02;7.15;;;;;;;25.26;56.02;95601.28;5093182;28;20119;-74
2021/06/19 08:53:03;;;;;;;13.98;7.22;;;;;;;25.33;55.10;95606.00;5098280;28;20040;-74
2021/06/19 08:55:28;;;;;;;12.60;7.57;;;;;;;25.53;55.05;95604.78;5092067;28;20044;-72
2021/06/19 08:57:54;;;;;;;14.98;7.47;;;;;;;25.62;53.84;95596.41;5093013;28;20051;-73
2021/06/19 09:00:20;;;;;;;12.70;7.20;;;;;;;25.69;54.08;95596.50;5087141;28;20032;-74
2021/06/19 09:02:48;;;;;;;19.88;7.50;;;;;;;25.86;53.20;95599.78;5086899;28;20054;-74
2021/06/19 09:05:16;;;;;;;13.55;7.50;;;;;;;26.03;53.26;95593.88;5087400;28;20040;-74
2021/06/19 09:07:46;;;;;;;11.73;7.10;;;;;;;26.27;52.48;95599.91;5100149;28;20040;-74
2021/06/19 09:10:15;;;;;;;19.00;7.10;;;;;;;26.19;52.40;95595.56;5099801;28;20048;-74
2021/06/19 09:13:08;;;;;;;18.42;6.95;;;;;;;26.40;53.14;95595.81;5090143;28;20069;-74
2021/06/19 09:15:47;;;;;;;13.63;7.05;;;;;;;26.28;52.13;95604.16;5095770;28;20043;-75
2021/06/19 09:18:16;;;;;;;13.38;7.15;;;;;;;26.44;51.65;95599.31;5090578;28;20036;-73
2021/06/19 09:20:48;;;;;;;11.07;7.70;;;;;;;26.48;51.34;95596.66;5090113;28;20039;-74
2021/06/19 09:23:14;;;;;;;19.35;7.07;;;;;;;26.52;51.16;95596.69;5090950;28;20036;-75
2021/06/19 09:25:40;;;;;;;15.20;7.43;;;;;;;26.71;50.36;95593.81;5093710;28;20036;-75
2021/06/19 09:28:09;;;;;;;14.80;7.03;;;;;;;26.78;51.09;95593.88;5089547;28;20408;-73
2021/06/19 09:30:35;;;;;;;10.15;7.03;;;;;;;26.86;50.75;95599.34;5091232;28;20050;-73
2021/06/19 09:33:05;;;;;;;11.00;6.65;;;;;;;27.12;51.09;95591.09;5091195;28;20106;-75
2021/06/19 09:35:33;;;;;;;11.32;6.75;;;;;;;27.00;50.07;95588.66;5087217;28;20044;-75
2021/06/19 09:38:07;;;;;;;16.10;6.95;;;;;;;27.11;48.85;95584.13;5100018;28;20040;-75
2021/06/19 09:40:39;;;;;;;18.45;7.32;;;;;;;27.33;47.24;95584.25;5095925;28;20044;-75
2021/06/19 09:43:11;;;;;;;13.93;6.55;;;;;;;27.21;47.79;95581.84;5092367;28;20032;-75
2021/06/19 09:45:39;;;;;;;13.98;6.60;;;;;;;27.22;46.61;95584.19;5093103;28;20059;-74
2021/06/19 09:48:05;;;;;;;8.05;6.70;;;;;;;27.17;47.77;95581.84;5087728;28;20123;-74
2021/06/19 09:50:31;;;;;;;15.65;6.88;;;;;;;27.28;48.17;95581.91;5088797;28;20040;-74
2021/06/19 09:53:11;;;;;;;15.02;7.10;;;;;;;27.12;47.88;95574.88;5093811;28;20044;-75
2021/06/19 09:55:37;;;;;;;13.60;6.30;;;;;;;27.43;46.64;95577.41;5098211;28;20046;-76
2021/06/19 09:58:02;;;;;;;16.40;6.57;;;;;;;27.54;47.75;95577.47;5091965;28;20036;-75
2021/06/19 10:00:37;;;;;;;11.02;6.60;;;;;;;27.88;46.88;95569.13;5101291;28;20054;-74
2021/06/19 10:03:04;;;;;;;13.23;7.30;;;;;;;28.02;46.94;95566.50;5116225;28;20039;-74
2021/06/19 10:05:30;;;;;;;13.73;6.80;;;;;;;27.90;45.40;95574.91;5100615;28;20047;-74
2021/06/19 10:07:55;;;;;;;13.77;7.20;;;;;;;27.59;45.47;95566.28;5091074;28;20040;-75
2021/06/19 10:10:21;;;;;;;8.68;6.05;;;;;;;27.85;45.08;95567.19;5093643;28;20066;-77
2021/06/19 10:12:48;;;;;;;12.13;7.05;;;;;;;27.87;44.69;95559.47;5099156;28;20043;-74
2021/06/19 10:15:15;;;;;;;13.95;6.85;;;;;;;28.07;44.75;95555.28;5101538;28;20481;-74
2021/06/19 10:17:42;;;;;;;18.27;7.10;;;;;;;28.39;43.78;95551.91;5091250;28;20038;-78
2021/06/19 10:20:10;;;;;;;19.10;6.57;;;;;;;28.51;45.27;95556.94;5093008;28;20043;-73
2021/06/19 10:22:37;;;;;;;12.90;6.50;;;;;;;28.71;43.33;95548.47;5093182;28;20382;-73
2021/06/19 10:25:07;;;;;;;13.02;6.50;;;;;;;28.76;43.81;95548.09;5091618;28;20062;-72
2021/06/19 10:27:35;;;;;;;10.43;6.80;;;;;;;29.06;43.79;95552.31;5090603;28;20101;-73
2021/06/19 10:30:03;;;;;;;11.10;7.45;;;;;;;28.78;42.28;95553.91;5097552;28;20119;-73
2021/06/19 10:32:49;;;;;;;14.07;6.97;;;;;;;28.94;42.33;95542.66;5111696;28;20058;-73
2021/06/19 10:35:21;;;;;;;11.98;6.95;;;;;;;29.01;42.70;95547.31;5072461;28;20044;-76
2021/06/19 10:37:49;;;;;;;11.13;6.25;;;;;;;29.37;41.61;95555.41;5076326;28;20043;-73
2021/06/19 10:40:19;;;;;;;13.02;6.82;;;;;;;29.63;41.18;95542.56;5092356;28;20040;-75
2021/06/19 10:42:45;;;;;;;11.82;6.45;;;;;;;29.63;40.84;95542.56;5102782;28;20035;-74
2021/06/19 10:45:23;;;;;;;11.35;6.03;;;;;;;29.78;41.41;95530.47;5092313;28;20056;-75
2021/06/19 10:48:09;;;;;;;12.32;6.93;;;;;;;29.43;42.28;95536.81;5076979;28;20036;-77
2021/06/19 10:50:37;;;;;;;11.18;6.13;;;;;;;29.98;40.40;95527.31;5093890;28;20040;-77
2021/06/19 10:53:29;;;;;;;11.35;6.22;;;;;;;30.49;39.64;95522.41;5094010;28;20390;-77
2021/06/19 10:55:56;;;;;;;9.60;6.60;;;;;;;30.92;38.63;95524.75;5100907;28;20071;-78
2021/06/19 10:58:30;;;;;;;13.43;7.18;;;;;;;30.72;37.72;95513.69;5093275;28;20329;-81
2021/06/19 11:01:04;;;;;;;11.25;6.82;;;;;;;31.19;36.47;95519.50;5096162;28;20147;-78
2021/06/19 11:03:54;;;;;;;12.80;6.57;;;;;;;31.72;36.04;95516.59;5099058;28;20051;-77
2021/06/19 11:06:30;;;;;;;10.88;6.53;;;;;;;32.01;36.03;95500.69;5083081;28;20060;-78
2021/06/19 11:09:02;;;;;;;12.70;6.70;;;;;;;31.77;35.67;95497.09;5090821;28;20062;-77
2021/06/19 11:11:58;;;;;;;12.88;6.60;;;;;;;31.84;35.06;95497.00;5083485;28;20036;-77
2021/06/19 11:14:43;;;;;;;11.90;6.63;;;;;;;32.32;34.45;95491.72;5092817;28;20094;-77
2021/06/19 11:17:09;;;;;;;13.52;6.75;;;;;;;32.57;34.55;95485.84;5088648;28;20111;-77
2021/06/19 11:19:39;;;;;;;13.98;6.72;;;;;;;32.24;34.90;95491.03;5091816;28;20481;-77
2021/06/19 11:22:37;;;;;;;11.45;6.85;;;;;;;32.23;34.63;95490.28;5091932;28;20075;-77
2021/06/19 11:25:15;;;;;;;8.95;6.57;;;;;;;32.34;34.74;95478.44;5088906;28;20044;-77
2021/06/19 11:28:00;;;;;;;14.70;6.50;;;;;;;32.53;34.18;95477.00;5071471;28;20040;-77
2021/06/19 11:30:35;;;;;;;11.55;7.03;;;;;;;32.72;34.67;95470.09;5090673;28;20040;-77